createdAt,value
2018-02-03T20:12:35.852Z,3.10
2018-02-03T20:15:03.331Z,3.20
2018-02-03T20:17:30.816Z,3.20
2018-02-03T20:19:58.287Z,3.30
2018-02-03T20:22:25.765Z,3.30
2018-02-03T20:24:53.229Z,3.40
2018-02-03T20:27:20.694Z,3.50
2018-02-03T20:29:48.215Z,3.60
2018-02-03T20:32:15.640Z,3.50
2018-02-03T20:34:43.114Z,3.50
2018-02-03T20:37:10.581Z,3.60
2018-02-03T20:39:38.070Z,3.60
2018-02-03T20:42:05.518Z,3.70
2018-02-03T20:44:32.979Z,3.80
2018-02-03T20:47:00.461Z,3.90
2018-02-03T20:49:27.917Z,3.80
2018-02-03T20:51:55.623Z,3.80
2018-02-03T20:54:23.116Z,3.70
2018-02-03T20:56:50.577Z,3.70
2018-02-03T20:59:18.070Z,3.60
2018-02-03T21:01:45.539Z,3.60
2018-02-03T21:04:13.025Z,3.50
2018-02-03T21:06:40.534Z,3.50
2018-02-03T21:09:07.959Z,3.60
2018-02-03T21:11:35.439Z,3.50
2018-02-03T21:14:02.928Z,3.50
2018-02-03T21:16:30.400Z,3.50
2018-02-03T21:18:57.858Z,3.30
2018-02-03T21:21:25.341Z,3.10
2018-02-03T21:23:52.811Z,3.00
2018-02-03T21:26:20.277Z,3.10
2018-02-03T21:28:47.745Z,3.10
2018-02-03T21:31:15.255Z,3.00
2018-02-03T21:33:42.738Z,2.90
2018-02-03T21:36:10.225Z,2.80
2018-02-03T21:38:37.690Z,2.80
2018-02-03T21:41:05.175Z,2.80
2018-02-03T21:43:32.645Z,2.80
2018-02-03T21:46:00.112Z,2.80
2018-02-03T21:48:27.585Z,2.80
2018-02-03T21:50:55.055Z,2.90
2018-02-03T21:53:22.527Z,2.90
2018-02-03T21:55:49.996Z,3.00
2018-02-03T21:58:17.474Z,3.10
2018-02-03T22:00:44.937Z,3.00
2018-02-03T22:03:12.471Z,3.10
2018-02-03T22:05:39.942Z,3.10
2018-02-03T22:08:07.431Z,3.10
2018-02-03T22:10:34.894Z,3.10
2018-02-03T22:13:02.357Z,3.20
2018-02-03T22:15:29.821Z,3.20
2018-02-03T22:17:57.363Z,3.10
2018-02-03T22:20:25.606Z,3.00
2018-02-03T22:22:53.080Z,3.00
2018-02-03T22:25:20.559Z,3.00
2018-02-03T22:27:48.014Z,3.10
2018-02-03T22:30:15.494Z,3.00
2018-02-03T22:32:42.954Z,3.10
2018-02-03T22:35:11.393Z,3.10
2018-02-03T22:37:38.877Z,3.10
2018-02-03T22:40:06.348Z,3.10
2018-02-03T22:42:33.831Z,3.10
2018-02-03T22:45:01.309Z,3.10
2018-02-03T22:47:28.921Z,2.90
2018-02-03T22:49:57.163Z,2.80
2018-02-03T22:52:24.662Z,2.80
2018-02-03T22:54:52.131Z,2.80
2018-02-03T22:57:19.638Z,2.80
2018-02-03T22:59:47.132Z,2.80
2018-02-03T23:02:14.650Z,2.90
2018-02-03T23:04:42.098Z,2.90
2018-02-03T23:07:11.568Z,3.00
2018-02-03T23:09:39.048Z,3.00
2018-02-03T23:12:06.539Z,3.00
2018-02-03T23:14:34.015Z,3.00
2018-02-03T23:17:01.474Z,3.00
2018-02-03T23:19:28.964Z,3.10
2018-02-03T23:21:56.494Z,3.10
2018-02-03T23:24:23.965Z,3.00
2018-02-03T23:26:51.447Z,2.90
2018-02-03T23:29:21.178Z,2.90
2018-02-03T23:31:48.683Z,2.90
2018-02-03T23:34:16.204Z,2.90
2018-02-03T23:36:43.635Z,2.90
2018-02-03T23:39:11.952Z,2.80
2018-02-03T23:41:39.536Z,2.80
2018-02-03T23:44:07.045Z,3.00
2018-02-03T23:46:34.478Z,2.90
2018-02-03T23:49:02.078Z,2.90
2018-02-03T23:51:29.524Z,2.80
2018-02-03T23:53:56.988Z,2.80
2018-02-03T23:56:24.504Z,3.00
2018-02-03T23:58:51.998Z,3.00
